createdAt,value
2022-12-01T00:01:39.627Z,28.27
2022-12-01T00:04:12.112Z,27.60
2022-12-01T00:06:45.206Z,26.58
2022-12-01T00:09:36.258Z,24.15
2022-12-01T00:12:09.134Z,25.30
2022-12-01T00:14:41.581Z,29.25
2022-12-01T00:17:14.682Z,30.45
2022-12-01T00:19:47.520Z,27.95
2022-12-01T00:22:20.837Z,24.85
2022-12-01T00:24:53.306Z,28.40
2022-12-01T00:27:26.105Z,40.40
2022-12-01T00:29:58.528Z,25.73
2022-12-01T00:32:31.692Z,27.50
2022-12-01T00:35:06.105Z,27.80
2022-12-01T00:37:38.885Z,26.48
2022-12-01T00:40:11.919Z,32.05
2022-12-01T00:42:44.654Z,29.35
2022-12-01T00:45:17.208Z,30.48
2022-12-01T00:47:49.948Z,29.20
2022-12-01T00:50:22.441Z,29.50
2022-12-01T00:52:55.278Z,24.60
2022-12-01T00:55:27.828Z,28.20
2022-12-01T00:58:00.599Z,25.42
2022-12-01T01:00:33.112Z,31.98
2022-12-01T01:03:07.717Z,24.95
2022-12-01T01:05:42.232Z,29.27
2022-12-01T01:08:15.204Z,25.40
2022-12-01T01:10:48.830Z,26.65
2022-12-01T01:13:21.610Z,30.00
2022-12-01T01:16:03.454Z,23.40
2022-12-01T01:18:36.271Z,22.95
2022-12-01T01:21:12.966Z,25.13
2022-12-01T01:23:45.902Z,25.15
2022-12-01T01:26:20.061Z,28.90
2022-12-01T01:28:53.653Z,21.98
2022-12-01T01:31:28.499Z,29.52
2022-12-01T01:34:01.363Z,22.13
2022-12-01T01:36:34.127Z,23.67
2022-12-01T01:39:07.005Z,24.17
2022-12-01T01:41:39.479Z,22.70
2022-12-01T01:44:50.913Z,29.10
2022-12-01T01:47:36.247Z,22.63
2022-12-01T01:50:14.153Z,24.60
2022-12-01T01:52:51.389Z,26.75
2022-12-01T01:55:25.010Z,22.65
2022-12-01T01:57:57.802Z,27.20
2022-12-01T02:00:30.581Z,22.95
2022-12-01T02:03:04.345Z,27.25
2022-12-01T02:05:38.273Z,34.83
2022-12-01T02:08:14.305Z,23.55
2022-12-01T02:11:05.891Z,25.90
2022-12-01T02:13:47.394Z,26.40
2022-12-01T02:16:30.651Z,25.75
2022-12-01T02:19:21.156Z,28.45
2022-12-01T02:22:14.217Z,29.42
2022-12-01T02:25:08.192Z,25.67
2022-12-01T02:27:58.424Z,26.02
2022-12-01T02:30:36.818Z,28.48
2022-12-01T02:33:38.799Z,29.80
2022-12-01T02:36:33.680Z,27.80
2022-12-01T02:39:13.629Z,28.10
2022-12-01T02:41:59.105Z,29.50
2022-12-01T02:44:40.116Z,27.58
2022-12-01T02:47:16.363Z,26.50
2022-12-01T02:49:52.254Z,28.95
2022-12-01T02:52:27.170Z,31.48
2022-12-01T02:54:59.926Z,28.42
2022-12-01T02:57:32.438Z,29.73
2022-12-01T03:00:06.762Z,31.23
2022-12-01T03:03:09.393Z,23.80
2022-12-01T03:05:44.998Z,27.92
2022-12-01T03:08:45.978Z,27.98
2022-12-01T03:11:29.970Z,25.15
2022-12-01T03:14:22.954Z,24.27
2022-12-01T03:16:58.998Z,30.75
2022-12-01T03:20:02.451Z,29.70
2022-12-01T03:22:42.542Z,27.08
2022-12-01T03:25:16.649Z,30.55
2022-12-01T03:28:20.175Z,31.88
2022-12-01T03:30:52.686Z,33.87
2022-12-01T03:33:43.611Z,27.83
2022-12-01T03:39:15.365Z,29.60
2022-12-01T03:42:02.326Z,29.63
2022-12-01T03:44:42.893Z,31.65
2022-12-01T03:47:20.705Z,30.92
2022-12-01T03:49:54.666Z,35.92
2022-12-01T03:52:43.630Z,30.42
2022-12-01T03:55:29.083Z,28.40
2022-12-01T03:58:13.138Z,28.58
2022-12-01T04:00:50.037Z,30.55
2022-12-01T04:03:25.619Z,26.77
2022-12-01T04:05:58.409Z,29.80
2022-12-01T04:08:30.922Z,32.42
2022-12-01T04:11:27.090Z,32.15
2022-12-01T04:14:02.105Z,30.95
2022-12-01T04:16:35.217Z,31.83
2022-12-01T04:19:07.780Z,31.45
2022-12-01T04:21:40.547Z,29.75
2022-12-01T04:24:13.510Z,29.27
2022-12-01T04:26:46.592Z,27.88
2022-12-01T04:29:19.093Z,29.90
2022-12-01T04:31:51.948Z,23.88
2022-12-01T04:34:24.710Z,28.58
2022-12-01T04:36:57.494Z,30.02
2022-12-01T04:39:29.966Z,34.20
2022-12-01T04:42:03.200Z,33.67
2022-12-01T04:44:36.087Z,28.38
2022-12-01T04:47:08.921Z,29.67
2022-12-01T04:49:41.460Z,29.40
2022-12-01T04:52:14.272Z,29.20
2022-12-01T04:54:46.855Z,27.85
2022-12-01T04:57:19.701Z,26.98
2022-12-01T04:59:52.291Z,23.15
2022-12-01T05:02:25.241Z,23.60
2022-12-01T05:04:57.805Z,26.73
2022-12-01T05:07:30.618Z,28.42
2022-12-01T05:10:03.899Z,30.65
2022-12-01T05:12:37.432Z,24.33
2022-12-01T05:15:10.204Z,25.67
2022-12-01T05:17:43.261Z,28.02
2022-12-01T05:20:39.655Z,26.80
2022-12-01T05:23:16.819Z,21.10
2022-12-01T05:25:49.729Z,23.92
2022-12-01T05:28:24.601Z,29.60
2022-12-01T05:30:57.173Z,27.40
2022-12-01T05:33:31.300Z,30.23
2022-12-01T05:36:03.973Z,23.98
2022-12-01T05:38:37.008Z,24.70
2022-12-01T05:41:10.275Z,27.48
2022-12-01T05:43:43.120Z,24.08
2022-12-01T05:46:15.706Z,21.83
2022-12-01T05:48:48.513Z,23.05
2022-12-01T05:51:21.076Z,29.25
2022-12-01T05:53:53.887Z,26.92
2022-12-01T05:56:26.460Z,29.33
2022-12-01T05:58:59.211Z,25.25
2022-12-01T06:01:31.769Z,26.13
2022-12-01T06:04:04.783Z,23.08
2022-12-01T06:06:37.312Z,19.67
2022-12-01T06:09:10.989Z,23.83
2022-12-01T06:11:43.467Z,21.35
2022-12-01T06:14:16.558Z,22.33
2022-12-01T06:16:49.145Z,22.20
2022-12-01T06:19:22.291Z,20.20
2022-12-01T06:21:54.880Z,22.10
2022-12-01T06:24:28.043Z,20.35
2022-12-01T06:27:00.720Z,20.65
2022-12-01T06:29:35.641Z,20.33
2022-12-01T06:32:10.711Z,19.80
2022-12-01T06:34:46.236Z,21.13
2022-12-01T06:37:18.996Z,25.60
2022-12-01T06:39:52.248Z,24.15
2022-12-01T06:42:25.096Z,21.77
2022-12-01T06:44:58.091Z,21.20
2022-12-01T06:47:30.899Z,22.15
2022-12-01T06:50:07.967Z,18.25
2022-12-01T06:52:40.445Z,16.00
2022-12-01T06:55:13.310Z,21.42
2022-12-01T06:57:46.134Z,19.38
2022-12-01T07:00:19.474Z,23.30
2022-12-01T07:02:52.292Z,20.50
2022-12-01T07:05:25.869Z,16.83
2022-12-01T07:07:59.796Z,17.92
2022-12-01T07:10:32.885Z,23.45
2022-12-01T07:13:05.390Z,24.58
2022-12-01T07:15:38.969Z,22.75
2022-12-01T07:18:11.471Z,23.85
2022-12-01T07:20:44.278Z,19.98
2022-12-01T07:23:16.837Z,20.67
2022-12-01T07:25:57.692Z,19.25
2022-12-01T07:28:30.652Z,21.75
2022-12-01T07:31:05.629Z,21.20
2022-12-01T07:33:38.582Z,22.17
2022-12-01T07:36:12.179Z,23.00
2022-12-01T07:38:44.713Z,20.83
2022-12-01T07:41:21.496Z,20.52
2022-12-01T07:43:55.530Z,16.60
2022-12-01T07:46:28.908Z,18.80
2022-12-01T07:49:01.573Z,23.23
2022-12-01T07:51:35.672Z,19.27
2022-12-01T07:54:08.340Z,23.17
2022-12-01T07:56:41.503Z,23.13
2022-12-01T07:59:14.202Z,19.95
2022-12-01T08:01:47.142Z,17.83
2022-12-01T08:04:19.679Z,23.33
2022-12-01T08:06:52.736Z,18.67
2022-12-01T08:09:25.527Z,17.90
2022-12-01T08:11:58.375Z,17.20
2022-12-01T08:14:30.949Z,17.70
2022-12-01T08:17:03.876Z,15.05
2022-12-01T08:19:36.555Z,21.83
2022-12-01T08:22:09.613Z,16.13
2022-12-01T08:24:42.194Z,15.45
2022-12-01T08:27:14.980Z,18.38
2022-12-01T08:29:47.801Z,14.90
2022-12-01T08:32:23.368Z,16.50
2022-12-01T08:34:56.061Z,14.60
2022-12-01T08:37:28.876Z,24.92
2022-12-01T08:40:01.409Z,18.08
2022-12-01T08:42:34.311Z,19.50
2022-12-01T08:45:07.253Z,17.23
2022-12-01T08:47:40.149Z,15.77
2022-12-01T08:50:12.811Z,15.65
2022-12-01T08:52:46.637Z,20.58
2022-12-01T08:55:19.749Z,17.15
2022-12-01T08:57:52.578Z,18.45
2022-12-01T09:00:25.391Z,19.15
2022-12-01T09:02:58.207Z,17.10
2022-12-01T09:05:30.785Z,15.15
2022-12-01T09:08:22.195Z,13.88
2022-12-01T09:10:54.693Z,14.15
2022-12-01T09:13:28.661Z,23.20
2022-12-01T09:16:11.235Z,18.63
2022-12-01T09:18:46.035Z,16.00
2022-12-01T09:21:25.019Z,13.57
2022-12-01T09:23:58.104Z,12.65
2022-12-01T09:26:31.408Z,15.75
2022-12-01T09:29:07.460Z,16.30
2022-12-01T09:31:40.601Z,15.75
2022-12-01T09:34:16.393Z,12.43
2022-12-01T09:36:49.277Z,16.45
2022-12-01T09:39:22.223Z,11.77
2022-12-01T09:42:07.650Z,18.88
2022-12-01T09:44:50.789Z,15.07
2022-12-01T09:47:30.880Z,11.43
2022-12-01T09:53:06.456Z,14.15
2022-12-01T09:55:39.710Z,16.13
2022-12-01T09:58:19.294Z,14.98
2022-12-01T10:00:54.373Z,17.33
2022-12-01T10:03:46.485Z,25.65
2022-12-01T10:06:37.834Z,17.05
2022-12-01T10:09:32.524Z,19.35
2022-12-01T10:12:15.277Z,17.30
2022-12-01T10:15:06.711Z,17.88
2022-12-01T10:17:59.857Z,21.15
2022-12-01T10:21:05.223Z,18.33
2022-12-01T10:24:08.751Z,15.30
2022-12-01T10:33:24.253Z,25.10
2022-12-01T10:36:09.359Z,23.27
2022-12-01T10:38:50.889Z,18.90
2022-12-01T10:41:29.014Z,19.65
2022-12-01T10:44:05.665Z,16.85
2022-12-01T10:46:48.157Z,21.38
2022-12-01T10:49:23.151Z,21.35
2022-12-01T10:51:58.050Z,23.88
2022-12-01T10:54:41.312Z,17.50
2022-12-01T10:57:17.821Z,19.83
2022-12-01T11:00:06.860Z,22.23
2022-12-01T11:02:43.830Z,23.30
2022-12-01T11:05:27.544Z,21.58
2022-12-01T11:08:00.462Z,18.95
2022-12-01T11:10:34.053Z,21.73
2022-12-01T11:13:28.799Z,20.98
2022-12-01T11:16:04.432Z,17.05
2022-12-01T11:18:38.548Z,15.55
2022-12-01T11:21:14.708Z,19.30
2022-12-01T11:23:49.361Z,17.95
2022-12-01T11:26:32.430Z,17.67
2022-12-01T11:29:20.694Z,15.23
2022-12-01T11:31:53.840Z,18.33
2022-12-01T11:34:34.611Z,16.55
2022-12-01T11:37:15.747Z,15.20
2022-12-01T11:39:50.149Z,21.23
2022-12-01T11:42:28.603Z,18.70
2022-12-01T11:45:22.534Z,16.75
2022-12-01T11:48:01.996Z,16.52
2022-12-01T11:50:37.963Z,23.30
2022-12-01T11:53:32.157Z,21.05
2022-12-01T11:56:44.382Z,20.05
2022-12-01T11:59:23.451Z,22.02
2022-12-01T12:02:04.833Z,21.92
2022-12-01T12:04:46.478Z,18.75
2022-12-01T12:07:48.520Z,17.98
2022-12-01T12:10:54.797Z,18.02
2022-12-01T12:13:40.515Z,17.00
2022-12-01T12:16:34.167Z,18.73
2022-12-01T12:19:33.790Z,18.15
2022-12-01T12:22:55.001Z,16.38
2022-12-01T12:25:34.408Z,19.58
2022-12-01T12:28:28.676Z,16.83
2022-12-01T12:31:14.924Z,16.70
2022-12-01T12:34:06.329Z,14.25
2022-12-01T12:37:01.038Z,16.52
2022-12-01T12:40:04.407Z,17.33
2022-12-01T12:43:04.631Z,16.17
2022-12-01T12:46:01.142Z,20.95
2022-12-01T12:49:22.689Z,17.50
2022-12-01T12:52:07.840Z,16.95
2022-12-01T12:54:57.020Z,22.17
2022-12-01T12:57:39.895Z,16.15
2022-12-01T13:00:27.446Z,16.73
2022-12-01T13:03:19.925Z,13.85
2022-12-01T13:06:01.946Z,20.52
2022-12-01T13:08:46.170Z,17.27
2022-12-01T13:11:32.044Z,16.58
2022-12-01T13:14:35.478Z,17.08
2022-12-01T13:17:23.387Z,15.95
2022-12-01T13:19:55.877Z,18.33
2022-12-01T13:22:32.974Z,19.15
2022-12-01T13:25:06.020Z,14.68
2022-12-01T13:27:42.739Z,12.63
2022-12-01T13:30:24.642Z,14.93
2022-12-01T13:33:03.577Z,12.70
2022-12-01T13:35:38.610Z,12.85
2022-12-01T13:38:22.743Z,14.23
2022-12-01T13:41:13.725Z,14.88
2022-12-01T13:44:20.137Z,13.82
2022-12-01T13:47:03.751Z,15.43
2022-12-01T13:49:48.981Z,19.23
2022-12-01T13:52:21.793Z,14.10
2022-12-01T13:55:07.774Z,18.23
2022-12-01T13:57:58.233Z,23.83
2022-12-01T14:00:34.820Z,23.67
2022-12-01T14:03:13.281Z,21.85
2022-12-01T14:05:57.237Z,23.35
2022-12-01T14:08:37.866Z,20.45
2022-12-01T14:11:25.836Z,18.77
2022-12-01T14:14:12.592Z,26.80
2022-12-01T14:16:51.666Z,17.20
2022-12-01T14:19:35.957Z,21.27
2022-12-01T14:22:32.146Z,21.67
2022-12-01T14:25:20.954Z,18.65
2022-12-01T14:27:56.614Z,19.67
2022-12-01T14:30:45.764Z,19.15
2022-12-01T14:33:37.502Z,22.35
2022-12-01T14:36:20.570Z,21.75
2022-12-01T14:39:03.052Z,19.35
2022-12-01T14:41:49.699Z,21.63
2022-12-01T14:44:48.384Z,20.58
2022-12-01T14:47:23.001Z,19.48
2022-12-01T14:50:07.622Z,27.17
2022-12-01T14:53:17.210Z,19.92
2022-12-01T14:55:57.540Z,21.70
2022-12-01T14:58:32.062Z,19.88
2022-12-01T15:01:13.792Z,26.35
2022-12-01T15:03:51.907Z,23.52
2022-12-01T15:06:26.710Z,24.20
2022-12-01T15:12:08.932Z,19.55
2022-12-01T15:14:49.635Z,19.33
2022-12-01T15:17:32.077Z,21.30
2022-12-01T15:20:25.052Z,20.17
2022-12-01T15:23:02.501Z,21.27
2022-12-01T15:25:37.547Z,18.27
2022-12-01T15:28:16.178Z,21.85
2022-12-01T15:30:52.795Z,19.80
2022-12-01T15:33:37.001Z,25.77
2022-12-01T15:36:09.916Z,19.45
2022-12-01T15:38:46.418Z,16.60
2022-12-01T15:41:29.129Z,18.58
2022-12-01T15:44:05.423Z,21.27
2022-12-01T15:46:37.889Z,17.70
2022-12-01T15:49:27.823Z,16.73
2022-12-01T15:52:10.785Z,23.15
2022-12-01T15:54:48.692Z,19.25
2022-12-01T15:57:22.390Z,28.55
2022-12-01T15:59:57.654Z,22.33
2022-12-01T16:02:33.176Z,21.48
2022-12-01T16:05:19.234Z,20.95
2022-12-01T16:08:13.178Z,21.83
2022-12-01T16:10:45.375Z,23.20
2022-12-01T16:13:47.490Z,23.45
2022-12-01T16:16:45.855Z,22.60
2022-12-01T16:19:18.335Z,20.63
2022-12-01T16:22:02.126Z,27.65
2022-12-01T16:24:55.106Z,24.65
2022-12-01T16:27:31.895Z,24.10
2022-12-01T16:30:19.094Z,26.77
2022-12-01T16:33:01.189Z,29.35
2022-12-01T16:35:34.526Z,22.35
2022-12-01T16:38:20.829Z,27.77
2022-12-01T16:40:59.152Z,27.20
2022-12-01T16:43:31.919Z,29.20
2022-12-01T16:46:09.448Z,27.17
2022-12-01T16:48:44.261Z,29.92
2022-12-01T16:51:17.337Z,26.95
2022-12-01T16:53:59.788Z,24.70
2022-12-01T16:56:32.667Z,24.35
2022-12-01T16:59:05.562Z,24.13
2022-12-01T17:01:38.134Z,28.38
2022-12-01T17:04:10.937Z,22.60
2022-12-01T17:06:43.469Z,27.98
2022-12-01T17:09:16.263Z,20.08
2022-12-01T17:11:48.791Z,27.45
2022-12-01T17:14:21.579Z,31.42
2022-12-01T17:16:54.088Z,23.27
2022-12-01T17:19:26.875Z,28.40
2022-12-01T17:21:59.448Z,24.02
2022-12-01T17:24:32.191Z,31.80
2022-12-01T17:27:04.707Z,32.90
2022-12-01T17:29:44.460Z,36.83
2022-12-01T17:32:18.506Z,33.05
2022-12-01T17:34:51.729Z,29.48
2022-12-01T17:37:24.556Z,34.13
2022-12-01T17:39:57.432Z,37.83
2022-12-01T17:42:31.987Z,30.30
2022-12-01T17:45:05.410Z,30.27
2022-12-01T17:47:37.924Z,28.77
2022-12-01T17:50:11.438Z,29.85
2022-12-01T17:52:44.291Z,28.00
2022-12-01T17:55:19.843Z,31.58
2022-12-01T17:57:52.347Z,27.30
2022-12-01T18:00:25.110Z,33.35
2022-12-01T18:02:57.678Z,30.48
2022-12-01T18:05:30.587Z,28.70
2022-12-01T18:08:03.213Z,29.10
2022-12-01T18:10:36.631Z,28.42
2022-12-01T18:13:09.242Z,38.42
2022-12-01T18:15:42.199Z,28.75
2022-12-01T18:18:14.888Z,27.65
2022-12-01T18:20:47.690Z,31.27
2022-12-01T18:23:20.463Z,37.13
2022-12-01T18:25:53.270Z,32.90
2022-12-01T18:28:25.850Z,31.88
2022-12-01T18:31:12.305Z,32.85
2022-12-01T18:33:45.331Z,35.63
2022-12-01T18:36:21.218Z,30.45
2022-12-01T18:38:59.008Z,32.95
2022-12-01T18:41:33.808Z,37.50
2022-12-01T18:44:06.617Z,32.15
2022-12-01T18:46:39.844Z,41.88
2022-12-01T18:49:13.129Z,34.33
2022-12-01T18:51:45.949Z,36.15
2022-12-01T18:54:18.631Z,31.85
2022-12-01T18:56:53.185Z,38.83
2022-12-01T18:59:27.020Z,40.45
2022-12-01T19:02:00.241Z,32.80
2022-12-01T19:04:32.952Z,30.08
2022-12-01T19:07:05.832Z,32.38
2022-12-01T19:09:39.858Z,34.88
2022-12-01T19:12:12.702Z,35.80
2022-12-01T19:14:45.364Z,38.97
2022-12-01T19:17:18.423Z,38.30
2022-12-01T19:19:51.103Z,46.17
2022-12-01T19:22:24.264Z,45.55
2022-12-01T19:24:56.957Z,50.30
2022-12-01T19:27:30.480Z,53.83
2022-12-01T19:30:03.714Z,56.30
2022-12-01T19:32:36.577Z,51.97
2022-12-01T19:35:09.424Z,45.17
2022-12-01T19:37:42.207Z,41.65
2022-12-01T19:40:15.063Z,48.95
2022-12-01T19:42:48.077Z,44.22
2022-12-01T19:45:20.588Z,40.83
2022-12-01T19:47:53.627Z,46.42
2022-12-01T19:50:26.178Z,45.75
2022-12-01T19:52:59.234Z,46.38
2022-12-01T19:55:31.816Z,43.97
2022-12-01T19:58:05.491Z,49.67
2022-12-01T20:00:38.047Z,54.42
2022-12-01T20:03:10.863Z,51.17
2022-12-01T20:05:43.355Z,38.22
2022-12-01T20:08:16.178Z,34.30
2022-12-01T20:10:49.053Z,36.70
2022-12-01T20:13:21.794Z,43.85
2022-12-01T20:15:54.377Z,42.67
2022-12-01T20:18:27.135Z,37.85
2022-12-01T20:21:19.070Z,47.33
2022-12-01T20:23:58.114Z,42.60
2022-12-01T20:26:33.600Z,31.75
2022-12-01T20:29:12.980Z,33.03
2022-12-01T20:31:45.820Z,38.80
2022-12-01T20:34:28.177Z,45.38
2022-12-01T20:37:01.281Z,41.75
2022-12-01T20:39:36.859Z,43.25
2022-12-01T20:42:10.216Z,43.70
2022-12-01T20:44:43.004Z,35.60
2022-12-01T20:47:18.507Z,44.72
2022-12-01T20:49:56.840Z,43.55
2022-12-01T20:52:33.936Z,40.65
2022-12-01T20:55:07.501Z,41.13
2022-12-01T20:57:40.195Z,45.38
2022-12-01T21:00:13.721Z,37.30
2022-12-01T21:02:47.869Z,42.65
2022-12-01T21:05:20.711Z,39.33
2022-12-01T21:07:54.084Z,43.67
2022-12-01T21:10:27.074Z,49.58
2022-12-01T21:13:24.254Z,41.53
2022-12-01T21:16:03.461Z,43.58
2022-12-01T21:18:52.503Z,43.08
2022-12-01T21:21:30.402Z,41.97
2022-12-01T21:24:13.706Z,46.22
2022-12-01T21:26:49.818Z,47.17
2022-12-01T21:29:27.807Z,42.85
2022-12-01T21:32:05.551Z,40.67
2022-12-01T21:34:38.171Z,39.50
2022-12-01T21:37:23.221Z,53.03
2022-12-01T21:39:57.387Z,47.83
2022-12-01T21:42:32.007Z,35.53
2022-12-01T21:45:17.706Z,43.10
2022-12-01T21:47:50.501Z,40.33
2022-12-01T21:50:24.953Z,43.35
2022-12-01T21:52:58.410Z,43.20
2022-12-01T21:55:33.244Z,43.13
2022-12-01T21:58:28.146Z,44.25
2022-12-01T22:01:01.296Z,33.65
2022-12-01T22:03:42.960Z,43.10
2022-12-01T22:06:30.786Z,36.63
2022-12-01T22:09:24.393Z,35.97
2022-12-01T22:12:04.555Z,24.77
2022-12-01T22:17:10.000Z,25.25
2022-12-01T22:19:47.478Z,26.73
2022-12-01T22:22:26.069Z,22.90
2022-12-01T22:25:07.195Z,25.15
2022-12-01T22:27:40.499Z,29.25
2022-12-01T22:30:20.661Z,24.85
2022-12-01T22:32:57.182Z,25.55
2022-12-01T22:35:45.247Z,33.25
2022-12-01T22:38:30.918Z,32.83
2022-12-01T22:41:12.630Z,36.83
2022-12-01T22:43:45.174Z,33.58
2022-12-01T22:46:30.519Z,32.00
2022-12-01T22:49:19.451Z,30.80
2022-12-01T22:51:59.598Z,36.78
2022-12-01T22:54:49.557Z,27.73
2022-12-01T22:57:32.417Z,32.20
2022-12-01T23:00:16.802Z,32.70
2022-12-01T23:02:51.131Z,34.03
2022-12-01T23:05:26.646Z,30.23
2022-12-01T23:07:59.569Z,27.40
2022-12-01T23:10:34.929Z,34.45
2022-12-01T23:13:16.610Z,28.33
2022-12-01T23:15:54.239Z,32.05
2022-12-01T23:18:32.151Z,24.88
2022-12-01T23:21:05.058Z,34.70
2022-12-01T23:23:38.138Z,37.15
2022-12-01T23:26:10.652Z,27.00
2022-12-01T23:28:43.562Z,31.30
2022-12-01T23:31:16.179Z,30.30
2022-12-01T23:33:49.137Z,31.98
2022-12-01T23:36:29.641Z,35.25
2022-12-01T23:39:06.975Z,31.70
2022-12-01T23:41:41.958Z,31.45
2022-12-01T23:44:22.569Z,34.00
2022-12-01T23:46:57.830Z,35.63
2022-12-01T23:49:35.109Z,38.78
2022-12-01T23:52:13.558Z,35.03
2022-12-01T23:54:46.776Z,37.50
2022-12-01T23:57:21.064Z,36.60
2022-12-01T23:59:56.338Z,32.08
